METAR AND TAF INFORMATION
METAR FOR EHLW
ADDS - METARS form results

(0635 UTC 24 April 2019)
Data provider http://aviationweather.gov/metar/data/
 
METAR text: EHLW 240625Z AUTO 14009KT 100V170 9999 BKN100 OVC150 14/09 Q0997 BLU 14010KT CAVOK
Conditions at: EHLW (LEEUWARDEN RNLAF, NL) observed 0625 UTC 24 April 2019
Temperature: 14.0°C (57°F)
Dewpoint: 9.0°C (48°F) [RH = 72%]
Pressure (altimeter): 29.44 inches Hg (997.0 mb)
Winds: from the SE (140 degrees) at 10 MPH (9 knots; 4.6 m/s)
Visibility: 6 or more miles (10+ km)
Ceiling: 10000 feet AGL
Clouds: broken clouds at 10000 feet AGL
overcast cloud deck at 15000 feet AGL
Weather: no significant weather observed at this time

METAR text: EHLW 240604Z AUTO 14010KT 110V170 9999 SCT093 SCT098 OVC100 14/09 Q0997 BLU 14010KT CAVOK
Conditions at: EHLW (LEEUWARDEN RNLAF, NL) observed 0604 UTC 24 April 2019
Temperature: 14.0°C (57°F)
Dewpoint: 9.0°C (48°F) [RH = 72%]
Pressure (altimeter): 29.44 inches Hg (997.0 mb)
Winds: from the SE (140 degrees) at 12 MPH (10 knots; 5.1 m/s)
Visibility: 6 or more miles (10+ km)
Ceiling: 10000 feet AGL
Clouds: scattered clouds at 9300 feet AGL
scattered clouds at 9800 feet AGL
overcast cloud deck at 10000 feet AGL
Weather: no significant weather observed at this time

METAR text: EHLW 240555Z AUTO 14010KT 100V170 9999 FEW093 OVC100 14/09 Q0997 BLU 13010KT CAVOK
Conditions at: EHLW (LEEUWARDEN RNLAF, NL) observed 0555 UTC 24 April 2019
Temperature: 14.0°C (57°F)
Dewpoint: 9.0°C (48°F) [RH = 72%]
Pressure (altimeter): 29.44 inches Hg (997.0 mb)
Winds: from the SE (140 degrees) at 12 MPH (10 knots; 5.1 m/s)
Visibility: 6 or more miles (10+ km)
Ceiling: 10000 feet AGL
Clouds: few clouds at 9300 feet AGL
overcast cloud deck at 10000 feet AGL
Weather: no significant weather observed at this time

Forecast for: EHLW (LEEUWARDEN RNLAF, NL)
Text: TAF EHLW 240439Z 2405/2417 14009KT 9999 FEW045 SCT075
Forecast period: 0500 to 0600 UTC 24 April 2019
Forecast type: FROM: standard forecast or significant change
Winds: from the SE (140 degrees) at 10 MPH (9 knots; 4.6 m/s)
Visibility: 6 or more miles 10+ km)
Ceiling: at least 12,000 feet AGL
Clouds: few clouds at 4500 feet AGL
scattered clouds at 7500 feet AGL
Weather: no significant weather forecast for this period
Text: BECMG 2406/2409 16012KT
Forecast period: 0600 to 1700 UTC 24 April 2019
Forecast type: BECOMING: Conditions expected to become as follows by 0900 UTC 24 April 2019
Winds: from the SSE (160 degrees) at 14 MPH (12 knots; 6.2 m/s)
Visibility: 6 or more miles 10+ km)
Ceiling: at least 12,000 feet AGL
Clouds: few clouds at 4500 feet AGL
scattered clouds at 7500 feet AGL
Weather: no significant weather forecast for this period
Text: TEMPO 2411/2417 17015G30KT
Forecast period: 1100 to 1700 UTC 24 April 2019
Forecast type: TEMPORARY: The following changes expected for less than half the time period
Winds: from the S (170 degrees) at 17 MPH (15 knots; 7.7 m/s)
gusting to 34 MPH (30 knots; 15.4 m/s)
Visibility: missing
Ceiling: unknown
Clouds: missing
Weather: no significant weather forecast for this period

 AIRPORT MAP

 RUNWAY INFORMATION
Runway 06 Runway length 9701 ft Runway width 164 ft
Runway elevation 4 ft Runway displaced threshold 847 ft Runway heading 55
Runway 24 Runway length 9701 ft Runway width 164 ft
Runway elevation 4 ft Runway displaced threshold 1053 ft Runway heading 235
Runway 09 Runway length 6559 ft Runway width 164 ft
Runway elevation 3 ft Runway displaced threshold 195 ft Runway heading 91
Runway 27 Runway length 6559 ft Runway width 164 ft
Runway elevation 4 ft Runway displaced threshold 0 ft Runway heading 271

 AIRPORT FREQUENCIES
Type APP Name RAPCON NOR Frequency 122.1 MHZ
Type DIR Name ARRIVAL Frequency 122.1 MHZ
Type GND Name GND Frequency 28.155 MHZ
Type TWR Name TWR Frequency 120.7 MHZ

 AIRPORT NEAR NAVIGATION AIDS
Type TACAN Name Leeuwarden Frequency 114700 KHZ